Afton, Texas
Current Conditions -  °F | °C
As of 1:53 PM on Thursday 27 Nov 2014 (Local Time) from KCDS Reporting Station
Clear Clear  
Wind Chill: 13°   Ceiling: Unl
Heat Index: 13°   Visibility: 10mi
Dew Point: -5°   Wind: 16mph
Humidity: 29%   Direction: 180°S
Pressure: 30.38"   Gusts: NA
Location:  33.76°N, 100.82°W
Report Text: KCDS 271953Z AUTO 18014KT 10SM CLR 13/M05 A3038 RMK AO2 SLP287 T01281050
Loading
Personal Weather Stations






























Interactive Weather Map New forecast layout! Learn more

10-Day Weather Forecast

Advertisements
Track Severe Weather on mobile